sensor_id;sensor_type;location;lat;lon;timestamp;temperature;humidity
44537;DHT22;30245;51.966;6.292;2023-03-14T00:00:13;16.90;57.80
44537;DHT22;30245;51.966;6.292;2023-03-14T00:02:40;16.90;57.70
44537;DHT22;30245;51.966;6.292;2023-03-14T00:05:06;16.90;57.70
44537;DHT22;30245;51.966;6.292;2023-03-14T00:07:41;16.90;57.60
44537;DHT22;30245;51.966;6.292;2023-03-14T00:10:12;16.90;57.70
44537;DHT22;30245;51.966;6.292;2023-03-14T00:12:39;16.80;57.80
44537;DHT22;30245;51.966;6.292;2023-03-14T00:15:06;16.90;57.80
44537;DHT22;30245;51.966;6.292;2023-03-14T00:17:32;16.90;57.70
44537;DHT22;30245;51.966;6.292;2023-03-14T00:19:58;16.90;57.60
44537;DHT22;30245;51.966;6.292;2023-03-14T00:22:31;16.90;57.70
44537;DHT22;30245;51.966;6.292;2023-03-14T00:24:57;16.90;57.70
44537;DHT22;30245;51.966;6.292;2023-03-14T00:27:22;16.90;57.70
44537;DHT22;30245;51.966;6.292;2023-03-14T00:29:48;16.80;57.80
44537;DHT22;30245;51.966;6.292;2023-03-14T00:32:14;16.80;57.80
44537;DHT22;30245;51.966;6.292;2023-03-14T00:34:39;16.80;58.00
44537;DHT22;30245;51.966;6.292;2023-03-14T00:37:05;16.80;58.20
44537;DHT22;30245;51.966;6.292;2023-03-14T00:39:31;16.80;58.40
44537;DHT22;30245;51.966;6.292;2023-03-14T00:41:56;16.80;58.50
44537;DHT22;30245;51.966;6.292;2023-03-14T00:44:22;16.70;58.80
44537;DHT22;30245;51.966;6.292;2023-03-14T00:46:47;16.70;59.10
44537;DHT22;30245;51.966;6.292;2023-03-14T00:49:13;16.70;59.20
44537;DHT22;30245;51.966;6.292;2023-03-14T00:51:39;16.60;59.40
44537;DHT22;30245;51.966;6.292;2023-03-14T00:54:04;16.50;59.60
44537;DHT22;30245;51.966;6.292;2023-03-14T00:56:30;16.40;59.90
44537;DHT22;30245;51.966;6.292;2023-03-14T00:58:56;16.40;59.90
44537;DHT22;30245;51.966;6.292;2023-03-14T01:01:22;16.40;60.20
44537;DHT22;30245;51.966;6.292;2023-03-14T01:03:51;16.30;60.30
44537;DHT22;30245;51.966;6.292;2023-03-14T01:06:19;16.30;60.30
44537;DHT22;30245;51.966;6.292;2023-03-14T01:08:46;16.30;60.60
44537;DHT22;30245;51.966;6.292;2023-03-14T01:11:17;16.30;60.60
44537;DHT22;30245;51.966;6.292;2023-03-14T01:13:43;16.30;60.60
44537;DHT22;30245;51.966;6.292;2023-03-14T01:16:10;16.30;60.50
44537;DHT22;30245;51.966;6.292;2023-03-14T01:18:37;16.30;60.40
44537;DHT22;30245;51.966;6.292;2023-03-14T01:21:09;16.30;60.30
44537;DHT22;30245;51.966;6.292;2023-03-14T01:23:35;16.30;60.10
44537;DHT22;30245;51.966;6.292;2023-03-14T01:26:00;16.30;59.80
44537;DHT22;30245;51.966;6.292;2023-03-14T01:28:26;16.30;59.50
44537;DHT22;30245;51.966;6.292;2023-03-14T01:30:52;16.30;59.90
44537;DHT22;30245;51.966;6.292;2023-03-14T01:33:17;16.30;59.00
44537;DHT22;30245;51.966;6.292;2023-03-14T01:35:43;16.30;58.90
44537;DHT22;30245;51.966;6.292;2023-03-14T01:38:08;16.30;58.70
44537;DHT22;30245;51.966;6.292;2023-03-14T01:40:40;16.40;58.50
44537;DHT22;30245;51.966;6.292;2023-03-14T01:43:17;16.40;58.20
44537;DHT22;30245;51.966;6.292;2023-03-14T01:46:20;16.40;57.70
44537;DHT22;30245;51.966;6.292;2023-03-14T01:49:00;16.40;57.30
44537;DHT22;30245;51.966;6.292;2023-03-14T01:56:48;16.20;56.20
44537;DHT22;30245;51.966;6.292;2023-03-14T01:59:15;16.20;56.10
44537;DHT22;30245;51.966;6.292;2023-03-14T02:01:43;16.20;56.10
44537;DHT22;30245;51.966;6.292;2023-03-14T02:04:10;16.10;55.90
44537;DHT22;30245;51.966;6.292;2023-03-14T02:06:50;16.20;55.80
44537;DHT22;30245;51.966;6.292;2023-03-14T02:09:17;16.20;55.60
44537;DHT22;30245;51.966;6.292;2023-03-14T02:11:44;16.20;55.40
44537;DHT22;30245;51.966;6.292;2023-03-14T02:14:17;16.20;55.40
44537;DHT22;30245;51.966;6.292;2023-03-14T02:16:44;16.10;55.20
44537;DHT22;30245;51.966;6.292;2023-03-14T02:19:11;16.10;55.10
44537;DHT22;30245;51.966;6.292;2023-03-14T02:21:45;16.10;55.00
44537;DHT22;30245;51.966;6.292;2023-03-14T02:24:27;16.10;55.20
44537;DHT22;30245;51.966;6.292;2023-03-14T02:27:15;16.10;54.80
44537;DHT22;30245;51.966;6.292;2023-03-14T02:29:59;16.20;54.80
44537;DHT22;30245;51.966;6.292;2023-03-14T02:32:28;16.10;54.80
44537;DHT22;30245;51.966;6.292;2023-03-14T02:34:56;16.20;54.70
44537;DHT22;30245;51.966;6.292;2023-03-14T02:37:45;16.10;54.80
44537;DHT22;30245;51.966;6.292;2023-03-14T02:40:11;16.10;54.90
44537;DHT22;30245;51.966;6.292;2023-03-14T02:42:37;16.10;55.00
44537;DHT22;30245;51.966;6.292;2023-03-14T02:47:34;15.90;55.50
44537;DHT22;30245;51.966;6.292;2023-03-14T02:50:09;15.90;55.90
44537;DHT22;30245;51.966;6.292;2023-03-14T02:52:35;15.80;56.20
44537;DHT22;30245;51.966;6.292;2023-03-14T02:55:01;15.80;56.50
44537;DHT22;30245;51.966;6.292;2023-03-14T02:57:26;15.80;56.60
44537;DHT22;30245;51.966;6.292;2023-03-14T02:59:52;15.80;56.60
44537;DHT22;30245;51.966;6.292;2023-03-14T03:02:17;15.80;56.60
44537;DHT22;30245;51.966;6.292;2023-03-14T03:04:43;15.80;56.80
44537;DHT22;30245;51.966;6.292;2023-03-14T03:07:09;15.70;57.20
44537;DHT22;30245;51.966;6.292;2023-03-14T03:09:34;15.70;57.50
44537;DHT22;30245;51.966;6.292;2023-03-14T03:12:00;15.60;57.50
44537;DHT22;30245;51.966;6.292;2023-03-14T03:14:25;15.60;57.90
44537;DHT22;30245;51.966;6.292;2023-03-14T03:16:51;15.50;58.20
44537;DHT22;30245;51.966;6.292;2023-03-14T03:19:16;15.40;58.70
44537;DHT22;30245;51.966;6.292;2023-03-14T03:21:43;15.40;58.80
44537;DHT22;30245;51.966;6.292;2023-03-14T03:24:09;15.30;59.10
44537;DHT22;30245;51.966;6.292;2023-03-14T03:26:35;15.30;59.40
44537;DHT22;30245;51.966;6.292;2023-03-14T03:29:01;15.20;59.40
44537;DHT22;30245;51.966;6.292;2023-03-14T03:31:27;15.20;59.50
44537;DHT22;30245;51.966;6.292;2023-03-14T03:33:52;15.20;59.60
44537;DHT22;30245;51.966;6.292;2023-03-14T03:36:25;15.20;59.80
44537;DHT22;30245;51.966;6.292;2023-03-14T03:38:51;15.10;59.90
44537;DHT22;30245;51.966;6.292;2023-03-14T03:41:17;15.10;59.80
44537;DHT22;30245;51.966;6.292;2023-03-14T03:43:42;15.10;59.80
44537;DHT22;30245;51.966;6.292;2023-03-14T03:46:08;15.20;59.80
44537;DHT22;30245;51.966;6.292;2023-03-14T03:48:34;15.20;59.70
44537;DHT22;30245;51.966;6.292;2023-03-14T03:51:00;15.20;59.60
44537;DHT22;30245;51.966;6.292;2023-03-14T03:53:26;15.30;59.60
44537;DHT22;30245;51.966;6.292;2023-03-14T03:55:52;15.30;59.40
44537;DHT22;30245;51.966;6.292;2023-03-14T03:58:18;15.30;59.40
44537;DHT22;30245;51.966;6.292;2023-03-14T04:00:43;15.30;59.30
44537;DHT22;30245;51.966;6.292;2023-03-14T04:03:09;15.40;59.40
44537;DHT22;30245;51.966;6.292;2023-03-14T04:05:35;15.30;59.40
44537;DHT22;30245;51.966;6.292;2023-03-14T04:08:01;15.30;59.40
44537;DHT22;30245;51.966;6.292;2023-03-14T04:10:27;15.20;59.70
44537;DHT22;30245;51.966;6.292;2023-03-14T04:12:53;15.20;59.80
44537;DHT22;30245;51.966;6.292;2023-03-14T04:15:18;15.20;60.00
44537;DHT22;30245;51.966;6.292;2023-03-14T04:17:44;15.20;60.10
44537;DHT22;30245;51.966;6.292;2023-03-14T04:20:10;15.20;60.20
44537;DHT22;30245;51.966;6.292;2023-03-14T04:22:37;15.20;60.40
44537;DHT22;30245;51.966;6.292;2023-03-14T04:25:02;15.10;60.40
44537;DHT22;30245;51.966;6.292;2023-03-14T04:27:29;15.10;60.50
44537;DHT22;30245;51.966;6.292;2023-03-14T04:29:54;15.20;60.60
44537;DHT22;30245;51.966;6.292;2023-03-14T04:32:20;15.20;60.50
44537;DHT22;30245;51.966;6.292;2023-03-14T04:34:46;15.20;60.40
44537;DHT22;30245;51.966;6.292;2023-03-14T04:37:12;15.30;60.30
44537;DHT22;30245;51.966;6.292;2023-03-14T04:39:38;15.30;60.20
44537;DHT22;30245;51.966;6.292;2023-03-14T04:42:03;15.30;60.20
44537;DHT22;30245;51.966;6.292;2023-03-14T04:44:29;15.30;60.30
44537;DHT22;30245;51.966;6.292;2023-03-14T04:46:54;15.20;60.20
44537;DHT22;30245;51.966;6.292;2023-03-14T04:49:20;15.20;60.20
44537;DHT22;30245;51.966;6.292;2023-03-14T04:51:46;15.20;60.10
44537;DHT22;30245;51.966;6.292;2023-03-14T04:54:11;15.20;60.10
44537;DHT22;30245;51.966;6.292;2023-03-14T04:56:37;15.20;60.10
44537;DHT22;30245;51.966;6.292;2023-03-14T04:59:03;15.30;60.00
44537;DHT22;30245;51.966;6.292;2023-03-14T05:01:29;15.30;60.00
44537;DHT22;30245;51.966;6.292;2023-03-14T05:03:55;15.30;60.00
44537;DHT22;30245;51.966;6.292;2023-03-14T05:06:20;15.30;59.90
44537;DHT22;30245;51.966;6.292;2023-03-14T05:08:46;15.30;59.80
44537;DHT22;30245;51.966;6.292;2023-03-14T05:11:12;15.30;59.80
44537;DHT22;30245;51.966;6.292;2023-03-14T05:13:38;15.20;59.80
44537;DHT22;30245;51.966;6.292;2023-03-14T05:16:06;15.20;59.90
44537;DHT22;30245;51.966;6.292;2023-03-14T05:18:32;15.20;59.80
44537;DHT22;30245;51.966;6.292;2023-03-14T05:20:58;15.20;59.80
44537;DHT22;30245;51.966;6.292;2023-03-14T05:23:24;15.20;59.70
44537;DHT22;30245;51.966;6.292;2023-03-14T05:25:50;15.20;59.70
44537;DHT22;30245;51.966;6.292;2023-03-14T05:28:15;15.30;59.70
44537;DHT22;30245;51.966;6.292;2023-03-14T05:30:41;15.20;59.70
44537;DHT22;30245;51.966;6.292;2023-03-14T05:33:06;15.20;59.90
44537;DHT22;30245;51.966;6.292;2023-03-14T05:35:32;15.10;60.30
44537;DHT22;30245;51.966;6.292;2023-03-14T05:37:57;15.00;60.80
44537;DHT22;30245;51.966;6.292;2023-03-14T05:40:23;14.90;61.00
44537;DHT22;30245;51.966;6.292;2023-03-14T05:42:49;14.80;61.20
44537;DHT22;30245;51.966;6.292;2023-03-14T05:45:14;14.80;61.40
44537;DHT22;30245;51.966;6.292;2023-03-14T05:47:40;14.80;61.40
44537;DHT22;30245;51.966;6.292;2023-03-14T05:50:06;14.80;61.30
44537;DHT22;30245;51.966;6.292;2023-03-14T05:52:31;14.80;61.40
44537;DHT22;30245;51.966;6.292;2023-03-14T05:54:57;14.80;61.60
44537;DHT22;30245;51.966;6.292;2023-03-14T05:57:22;14.80;61.70
44537;DHT22;30245;51.966;6.292;2023-03-14T05:59:48;14.70;62.00
44537;DHT22;30245;51.966;6.292;2023-03-14T06:02:13;14.70;62.20
44537;DHT22;30245;51.966;6.292;2023-03-14T06:04:39;14.60;62.40
44537;DHT22;30245;51.966;6.292;2023-03-14T06:07:05;14.60;62.40
44537;DHT22;30245;51.966;6.292;2023-03-14T06:09:30;14.60;62.50
44537;DHT22;30245;51.966;6.292;2023-03-14T06:11:56;14.60;62.70
44537;DHT22;30245;51.966;6.292;2023-03-14T06:14:21;14.50;62.80
44537;DHT22;30245;51.966;6.292;2023-03-14T06:16:47;14.50;62.80
44537;DHT22;30245;51.966;6.292;2023-03-14T06:19:16;14.60;62.80
44537;DHT22;30245;51.966;6.292;2023-03-14T06:21:42;14.60;62.60
44537;DHT22;30245;51.966;6.292;2023-03-14T06:24:08;14.70;62.60
44537;DHT22;30245;51.966;6.292;2023-03-14T06:26:33;14.70;62.90
44537;DHT22;30245;51.966;6.292;2023-03-14T06:28:59;14.60;63.00
44537;DHT22;30245;51.966;6.292;2023-03-14T06:31:31;14.70;63.20
44537;DHT22;30245;51.966;6.292;2023-03-14T06:33:57;14.60;63.40
44537;DHT22;30245;51.966;6.292;2023-03-14T06:36:22;14.70;63.40
44537;DHT22;30245;51.966;6.292;2023-03-14T06:38:48;14.70;63.20
44537;DHT22;30245;51.966;6.292;2023-03-14T06:41:14;14.80;63.10
44537;DHT22;30245;51.966;6.292;2023-03-14T06:43:39;14.90;63.00
44537;DHT22;30245;51.966;6.292;2023-03-14T06:46:05;14.90;63.70
44537;DHT22;30245;51.966;6.292;2023-03-14T06:48:31;14.90;63.30
44537;DHT22;30245;51.966;6.292;2023-03-14T06:50:56;14.90;63.60
44537;DHT22;30245;51.966;6.292;2023-03-14T06:53:22;14.90;63.60
44537;DHT22;30245;51.966;6.292;2023-03-14T06:55:48;14.90;64.00
44537;DHT22;30245;51.966;6.292;2023-03-14T06:58:13;14.80;63.80
44537;DHT22;30245;51.966;6.292;2023-03-14T07:00:39;14.90;64.00
44537;DHT22;30245;51.966;6.292;2023-03-14T07:03:04;14.90;64.00
44537;DHT22;30245;51.966;6.292;2023-03-14T07:05:30;14.90;64.10
44537;DHT22;30245;51.966;6.292;2023-03-14T07:07:56;14.90;64.10
44537;DHT22;30245;51.966;6.292;2023-03-14T07:10:21;15.00;64.30
44537;DHT22;30245;51.966;6.292;2023-03-14T07:12:47;14.90;64.40
44537;DHT22;30245;51.966;6.292;2023-03-14T07:15:13;14.90;64.60
44537;DHT22;30245;51.966;6.292;2023-03-14T07:17:38;14.90;64.70
44537;DHT22;30245;51.966;6.292;2023-03-14T07:20:04;14.90;64.90
44537;DHT22;30245;51.966;6.292;2023-03-14T07:22:30;14.90;65.00
44537;DHT22;30245;51.966;6.292;2023-03-14T07:24:56;14.90;65.10
44537;DHT22;30245;51.966;6.292;2023-03-14T07:27:21;14.90;65.20
44537;DHT22;30245;51.966;6.292;2023-03-14T07:29:47;14.90;65.30
44537;DHT22;30245;51.966;6.292;2023-03-14T07:32:13;14.90;65.40
44537;DHT22;30245;51.966;6.292;2023-03-14T07:34:41;14.90;65.60
44537;DHT22;30245;51.966;6.292;2023-03-14T07:37:07;15.00;65.80
44537;DHT22;30245;51.966;6.292;2023-03-14T07:39:33;15.00;65.70
44537;DHT22;30245;51.966;6.292;2023-03-14T07:41:59;15.00;65.70
44537;DHT22;30245;51.966;6.292;2023-03-14T07:44:25;15.00;65.90
44537;DHT22;30245;51.966;6.292;2023-03-14T07:46:51;15.00;65.90
44537;DHT22;30245;51.966;6.292;2023-03-14T07:49:17;15.00;65.90
44537;DHT22;30245;51.966;6.292;2023-03-14T07:51:42;15.10;66.00
44537;DHT22;30245;51.966;6.292;2023-03-14T07:54:09;15.10;66.00
44537;DHT22;30245;51.966;6.292;2023-03-14T07:56:35;15.10;65.90
44537;DHT22;30245;51.966;6.292;2023-03-14T07:59:00;15.10;66.00
44537;DHT22;30245;51.966;6.292;2023-03-14T08:01:26;15.10;65.70
44537;DHT22;30245;51.966;6.292;2023-03-14T08:03:52;15.10;65.70
44537;DHT22;30245;51.966;6.292;2023-03-14T08:06:18;15.20;65.80
44537;DHT22;30245;51.966;6.292;2023-03-14T08:08:43;15.20;65.80
44537;DHT22;30245;51.966;6.292;2023-03-14T08:11:09;15.20;65.50
44537;DHT22;30245;51.966;6.292;2023-03-14T08:13:36;15.10;65.00
44537;DHT22;30245;51.966;6.292;2023-03-14T08:16:01;15.10;64.80
44537;DHT22;30245;51.966;6.292;2023-03-14T08:18:27;15.10;64.40
44537;DHT22;30245;51.966;6.292;2023-03-14T08:20:52;15.10;64.30
44537;DHT22;30245;51.966;6.292;2023-03-14T08:23:18;15.10;64.00
44537;DHT22;30245;51.966;6.292;2023-03-14T08:25:44;15.10;63.80
44537;DHT22;30245;51.966;6.292;2023-03-14T08:28:09;15.10;63.50
44537;DHT22;30245;51.966;6.292;2023-03-14T08:30:35;15.10;63.20
44537;DHT22;30245;51.966;6.292;2023-03-14T08:33:00;15.00;62.90
44537;DHT22;30245;51.966;6.292;2023-03-14T08:35:27;14.90;62.70
44537;DHT22;30245;51.966;6.292;2023-03-14T08:37:52;14.90;62.60
44537;DHT22;30245;51.966;6.292;2023-03-14T08:40:18;14.70;62.30
44537;DHT22;30245;51.966;6.292;2023-03-14T08:42:44;14.70;62.40
44537;DHT22;30245;51.966;6.292;2023-03-14T08:45:14;14.60;62.40
44537;DHT22;30245;51.966;6.292;2023-03-14T08:47:41;14.60;62.30
44537;DHT22;30245;51.966;6.292;2023-03-14T08:50:08;14.70;62.40
44537;DHT22;30245;51.966;6.292;2023-03-14T08:52:34;14.70;62.10
44537;DHT22;30245;51.966;6.292;2023-03-14T08:55:00;14.80;62.00
44537;DHT22;30245;51.966;6.292;2023-03-14T08:57:26;14.60;61.70
44537;DHT22;30245;51.966;6.292;2023-03-14T08:59:56;14.50;61.60
44537;DHT22;30245;51.966;6.292;2023-03-14T09:02:22;14.40;61.80
44537;DHT22;30245;51.966;6.292;2023-03-14T09:04:50;14.30;62.00
44537;DHT22;30245;51.966;6.292;2023-03-14T09:07:16;14.20;61.80
44537;DHT22;30245;51.966;6.292;2023-03-14T09:09:42;14.20;61.80
44537;DHT22;30245;51.966;6.292;2023-03-14T09:12:07;14.10;61.60
44537;DHT22;30245;51.966;6.292;2023-03-14T09:14:33;14.00;61.70
44537;DHT22;30245;51.966;6.292;2023-03-14T09:16:58;13.80;61.30
44537;DHT22;30245;51.966;6.292;2023-03-14T09:19:24;13.60;61.30
44537;DHT22;30245;51.966;6.292;2023-03-14T09:21:50;13.40;61.30
44537;DHT22;30245;51.966;6.292;2023-03-14T09:24:16;13.30;61.50
44537;DHT22;30245;51.966;6.292;2023-03-14T09:26:42;13.20;61.50
44537;DHT22;30245;51.966;6.292;2023-03-14T09:29:08;13.20;61.60
44537;DHT22;30245;51.966;6.292;2023-03-14T09:31:34;13.10;61.40
44537;DHT22;30245;51.966;6.292;2023-03-14T09:34:00;13.00;61.30
44537;DHT22;30245;51.966;6.292;2023-03-14T09:36:26;13.00;61.40
44537;DHT22;30245;51.966;6.292;2023-03-14T09:38:51;13.00;61.30
44537;DHT22;30245;51.966;6.292;2023-03-14T09:41:32;12.90;61.00
44537;DHT22;30245;51.966;6.292;2023-03-14T09:44:05;12.90;60.90
44537;DHT22;30245;51.966;6.292;2023-03-14T09:46:35;12.90;60.80
44537;DHT22;30245;51.966;6.292;2023-03-14T09:49:02;12.90;60.70
44537;DHT22;30245;51.966;6.292;2023-03-14T09:51:28;13.00;60.50
44537;DHT22;30245;51.966;6.292;2023-03-14T09:53:54;12.90;60.30
44537;DHT22;30245;51.966;6.292;2023-03-14T09:56:28;13.00;60.30
44537;DHT22;30245;51.966;6.292;2023-03-14T09:58:57;13.10;60.10
44537;DHT22;30245;51.966;6.292;2023-03-14T10:01:29;13.30;59.60
44537;DHT22;30245;51.966;6.292;2023-03-14T10:03:57;13.30;59.30
44537;DHT22;30245;51.966;6.292;2023-03-14T10:06:26;13.40;58.80
44537;DHT22;30245;51.966;6.292;2023-03-14T10:08:52;13.40;58.90
44537;DHT22;30245;51.966;6.292;2023-03-14T10:11:20;13.50;58.80
44537;DHT22;30245;51.966;6.292;2023-03-14T10:16:16;13.60;58.20
44537;DHT22;30245;51.966;6.292;2023-03-14T10:18:45;13.70;58.00
44537;DHT22;30245;51.966;6.292;2023-03-14T10:21:28;13.60;57.90
44537;DHT22;30245;51.966;6.292;2023-03-14T10:23:54;13.60;57.80
44537;DHT22;30245;51.966;6.292;2023-03-14T10:26:28;13.50;57.70
44537;DHT22;30245;51.966;6.292;2023-03-14T10:29:16;13.40;57.80
44537;DHT22;30245;51.966;6.292;2023-03-14T10:31:52;13.30;57.80
44537;DHT22;30245;51.966;6.292;2023-03-14T10:34:25;13.40;57.90
44537;DHT22;30245;51.966;6.292;2023-03-14T10:36:59;13.80;57.60
44537;DHT22;30245;51.966;6.292;2023-03-14T10:39:31;14.10;57.00
44537;DHT22;30245;51.966;6.292;2023-03-14T10:44:38;14.20;55.70
44537;DHT22;30245;51.966;6.292;2023-03-14T10:47:04;14.20;56.00
44537;DHT22;30245;51.966;6.292;2023-03-14T10:49:33;14.30;55.50
44537;DHT22;30245;51.966;6.292;2023-03-14T10:54:41;14.20;55.30
44537;DHT22;30245;51.966;6.292;2023-03-14T10:57:11;14.20;55.30
44537;DHT22;30245;51.966;6.292;2023-03-14T10:59:39;14.10;55.10
44537;DHT22;30245;51.966;6.292;2023-03-14T11:07:40;14.10;54.80
44537;DHT22;30245;51.966;6.292;2023-03-14T11:10:37;14.00;54.40
44537;DHT22;30245;51.966;6.292;2023-03-14T11:16:14;13.80;54.30
44537;DHT22;30245;51.966;6.292;2023-03-14T11:21:44;13.60;54.50
44537;DHT22;30245;51.966;6.292;2023-03-14T11:27:11;13.50;54.10
44537;DHT22;30245;51.966;6.292;2023-03-14T11:29:45;13.50;54.30
44537;DHT22;30245;51.966;6.292;2023-03-14T11:34:54;13.40;54.20
44537;DHT22;30245;51.966;6.292;2023-03-14T11:37:31;13.40;53.90
44537;DHT22;30245;51.966;6.292;2023-03-14T11:40:14;13.40;54.10
44537;DHT22;30245;51.966;6.292;2023-03-14T11:42:44;13.40;54.10
44537;DHT22;30245;51.966;6.292;2023-03-14T11:45:20;13.60;54.10
44537;DHT22;30245;51.966;6.292;2023-03-14T11:50:48;13.70;53.70
44537;DHT22;30245;51.966;6.292;2023-03-14T11:53:24;13.60;54.40
44537;DHT22;30245;51.966;6.292;2023-03-14T11:55:55;13.60;54.00
44537;DHT22;30245;51.966;6.292;2023-03-14T11:58:23;13.60;54.10
44537;DHT22;30245;51.966;6.292;2023-03-14T12:00:52;13.60;54.20
44537;DHT22;30245;51.966;6.292;2023-03-14T12:03:35;13.70;54.20
44537;DHT22;30245;51.966;6.292;2023-03-14T12:06:28;13.70;54.00
44537;DHT22;30245;51.966;6.292;2023-03-14T12:09:04;13.70;54.10
44537;DHT22;30245;51.966;6.292;2023-03-14T12:14:30;13.80;53.40
44537;DHT22;30245;51.966;6.292;2023-03-14T12:17:34;13.80;53.10
44537;DHT22;30245;51.966;6.292;2023-03-14T12:22:33;14.20;52.20
44537;DHT22;30245;51.966;6.292;2023-03-14T12:30:40;15.60;49.80
44537;DHT22;30245;51.966;6.292;2023-03-14T12:35:48;16.40;48.40
44537;DHT22;30245;51.966;6.292;2023-03-14T12:38:26;16.40;47.20
44537;DHT22;30245;51.966;6.292;2023-03-14T12:43:41;16.50;45.90
44537;DHT22;30245;51.966;6.292;2023-03-14T12:46:23;16.50;46.10
44537;DHT22;30245;51.966;6.292;2023-03-14T12:51:46;16.80;44.40
44537;DHT22;30245;51.966;6.292;2023-03-14T13:04:59;16.50;39.00
44537;DHT22;30245;51.966;6.292;2023-03-14T13:10:42;16.40;39.30
44537;DHT22;30245;51.966;6.292;2023-03-14T13:13:25;16.30;39.10
44537;DHT22;30245;51.966;6.292;2023-03-14T13:15:57;16.30;39.10
44537;DHT22;30245;51.966;6.292;2023-03-14T13:18:43;16.40;38.60
44537;DHT22;30245;51.966;6.292;2023-03-14T13:21:22;16.50;38.60
44537;DHT22;30245;51.966;6.292;2023-03-14T13:26:21;17.00;38.50
44537;DHT22;30245;51.966;6.292;2023-03-14T13:28:48;17.30;38.50
44537;DHT22;30245;51.966;6.292;2023-03-14T13:31:24;17.50;38.20
44537;DHT22;30245;51.966;6.292;2023-03-14T13:34:02;17.70;37.10
44537;DHT22;30245;51.966;6.292;2023-03-14T13:36:30;17.70;36.90
44537;DHT22;30245;51.966;6.292;2023-03-14T13:39:00;17.50;35.90
44537;DHT22;30245;51.966;6.292;2023-03-14T13:41:27;17.30;36.30
44537;DHT22;30245;51.966;6.292;2023-03-14T13:44:08;17.20;36.50
44537;DHT22;30245;51.966;6.292;2023-03-14T13:46:38;17.30;36.40
44537;DHT22;30245;51.966;6.292;2023-03-14T13:49:06;17.50;36.50
44537;DHT22;30245;51.966;6.292;2023-03-14T13:51:32;17.60;35.40
44537;DHT22;30245;51.966;6.292;2023-03-14T13:53:59;17.60;35.20
44537;DHT22;30245;51.966;6.292;2023-03-14T13:56:27;17.60;35.00
44537;DHT22;30245;51.966;6.292;2023-03-14T13:58:54;17.50;34.20
44537;DHT22;30245;51.966;6.292;2023-03-14T14:01:34;17.30;33.70
44537;DHT22;30245;51.966;6.292;2023-03-14T14:04:08;17.30;33.70
44537;DHT22;30245;51.966;6.292;2023-03-14T14:06:36;17.30;33.70
44537;DHT22;30245;51.966;6.292;2023-03-14T14:09:14;17.40;34.30
44537;DHT22;30245;51.966;6.292;2023-03-14T14:11:51;17.70;34.00
44537;DHT22;30245;51.966;6.292;2023-03-14T14:14:22;17.90;33.70
44537;DHT22;30245;51.966;6.292;2023-03-14T14:16:50;18.00;32.80
44537;DHT22;30245;51.966;6.292;2023-03-14T14:19:16;17.80;32.50
44537;DHT22;30245;51.966;6.292;2023-03-14T14:21:44;17.70;32.80
44537;DHT22;30245;51.966;6.292;2023-03-14T14:24:14;17.70;31.40
44537;DHT22;30245;51.966;6.292;2023-03-14T14:26:51;17.60;30.70
44537;DHT22;30245;51.966;6.292;2023-03-14T14:29:27;17.80;31.20
44537;DHT22;30245;51.966;6.292;2023-03-14T14:32:10;18.10;30.80
44537;DHT22;30245;51.966;6.292;2023-03-14T14:34:43;18.20;30.10
44537;DHT22;30245;51.966;6.292;2023-03-14T14:37:33;18.20;29.80
44537;DHT22;30245;51.966;6.292;2023-03-14T14:40:07;18.00;30.00
44537;DHT22;30245;51.966;6.292;2023-03-14T14:42:33;17.90;29.60
44537;DHT22;30245;51.966;6.292;2023-03-14T14:44:59;17.90;29.70
44537;DHT22;30245;51.966;6.292;2023-03-14T14:47:28;17.90;29.40
44537;DHT22;30245;51.966;6.292;2023-03-14T14:49:55;17.90;29.70
44537;DHT22;30245;51.966;6.292;2023-03-14T14:52:34;18.10;30.00
44537;DHT22;30245;51.966;6.292;2023-03-14T14:55:02;18.30;30.10
44537;DHT22;30245;51.966;6.292;2023-03-14T14:57:32;18.60;29.90
44537;DHT22;30245;51.966;6.292;2023-03-14T15:00:04;19.10;29.80
44537;DHT22;30245;51.966;6.292;2023-03-14T15:02:40;19.50;29.20
44537;DHT22;30245;51.966;6.292;2023-03-14T15:05:24;19.50;28.90
44537;DHT22;30245;51.966;6.292;2023-03-14T15:07:51;19.20;28.80
44537;DHT22;30245;51.966;6.292;2023-03-14T15:10:19;19.00;29.00
44537;DHT22;30245;51.966;6.292;2023-03-14T15:12:45;18.80;28.90
44537;DHT22;30245;51.966;6.292;2023-03-14T15:15:11;18.80;28.80
44537;DHT22;30245;51.966;6.292;2023-03-14T15:17:37;18.40;28.70
44537;DHT22;30245;51.966;6.292;2023-03-14T15:20:05;18.00;29.00
44537;DHT22;30245;51.966;6.292;2023-03-14T15:22:31;17.60;29.30
44537;DHT22;30245;51.966;6.292;2023-03-14T15:24:57;17.30;29.60
44537;DHT22;30245;51.966;6.292;2023-03-14T15:27:22;17.10;29.70
44537;DHT22;30245;51.966;6.292;2023-03-14T15:29:48;17.00;29.70
44537;DHT22;30245;51.966;6.292;2023-03-14T15:32:16;16.90;29.90
44537;DHT22;30245;51.966;6.292;2023-03-14T15:34:42;16.80;30.00
44537;DHT22;30245;51.966;6.292;2023-03-14T15:37:11;16.80;30.20
44537;DHT22;30245;51.966;6.292;2023-03-14T15:39:38;16.60;30.30
44537;DHT22;30245;51.966;6.292;2023-03-14T15:42:04;16.50;30.40
44537;DHT22;30245;51.966;6.292;2023-03-14T15:44:29;16.30;30.40
44537;DHT22;30245;51.966;6.292;2023-03-14T15:46:55;16.00;30.40
44537;DHT22;30245;51.966;6.292;2023-03-14T15:49:20;15.90;30.70
44537;DHT22;30245;51.966;6.292;2023-03-14T15:51:46;15.70;30.70
44537;DHT22;30245;51.966;6.292;2023-03-14T15:54:11;15.50;30.50
44537;DHT22;30245;51.966;6.292;2023-03-14T15:56:37;15.30;30.60
44537;DHT22;30245;51.966;6.292;2023-03-14T15:59:03;15.10;30.90
44537;DHT22;30245;51.966;6.292;2023-03-14T16:01:28;15.10;31.10
44537;DHT22;30245;51.966;6.292;2023-03-14T16:03:54;15.00;31.10
44537;DHT22;30245;51.966;6.292;2023-03-14T16:06:19;15.00;31.20
44537;DHT22;30245;51.966;6.292;2023-03-14T16:08:46;15.00;31.30
44537;DHT22;30245;51.966;6.292;2023-03-14T16:11:13;15.10;31.30
44537;DHT22;30245;51.966;6.292;2023-03-14T16:13:40;14.90;31.00
44537;DHT22;30245;51.966;6.292;2023-03-14T16:16:07;14.80;31.90
44537;DHT22;30245;51.966;6.292;2023-03-14T16:18:35;14.70;31.50
44537;DHT22;30245;51.966;6.292;2023-03-14T16:21:12;14.60;31.70
44537;DHT22;30245;51.966;6.292;2023-03-14T16:23:37;14.60;31.90
44537;DHT22;30245;51.966;6.292;2023-03-14T16:26:09;14.60;32.00
44537;DHT22;30245;51.966;6.292;2023-03-14T16:28:35;14.60;32.20
44537;DHT22;30245;51.966;6.292;2023-03-14T16:31:06;14.50;32.30
44537;DHT22;30245;51.966;6.292;2023-03-14T16:33:32;14.50;32.50
44537;DHT22;30245;51.966;6.292;2023-03-14T16:36:00;14.40;32.70
44537;DHT22;30245;51.966;6.292;2023-03-14T16:38:30;14.30;32.80
44537;DHT22;30245;51.966;6.292;2023-03-14T16:41:02;14.20;32.90
44537;DHT22;30245;51.966;6.292;2023-03-14T16:43:28;14.10;33.10
44537;DHT22;30245;51.966;6.292;2023-03-14T16:45:56;14.00;33.10
44537;DHT22;30245;51.966;6.292;2023-03-14T16:48:23;13.90;33.10